createdAt,value
2023-02-21T00:00:09.182Z,5.22
2023-02-21T00:00:36.367Z,5.54
2023-02-21T00:00:57.160Z,5.54
2023-02-21T00:01:28.047Z,5.54
2023-02-21T00:02:00.310Z,5.34
2023-02-21T00:02:17.053Z,5.50
2023-02-21T00:02:37.865Z,5.50
2023-02-21T00:03:03.977Z,5.62
2023-02-21T00:03:37.462Z,5.50
2023-02-21T00:04:07.892Z,4.96
2023-02-21T00:04:35.925Z,5.62
2023-02-21T00:04:56.833Z,5.54
2023-02-21T00:05:36.669Z,6.06
2023-02-21T00:06:00.137Z,5.54
2023-02-21T00:06:16.831Z,5.29
2023-02-21T00:06:37.682Z,5.07
2023-02-21T00:07:03.971Z,4.67
2023-02-21T00:07:37.595Z,4.74
2023-02-21T00:08:07.888Z,5.37
2023-02-21T00:08:35.995Z,5.01
2023-02-21T00:08:56.807Z,5.25
2023-02-21T00:09:28.292Z,4.50
2023-02-21T00:10:00.056Z,5.25
2023-02-21T00:10:17.308Z,5.54
2023-02-21T00:10:37.890Z,5.13
2023-02-21T00:11:03.929Z,4.50
2023-02-21T00:11:37.837Z,4.79
2023-02-21T00:12:08.751Z,5.25
2023-02-21T00:12:37.542Z,5.07
2023-02-21T00:12:57.189Z,5.48
2023-02-21T00:13:28.769Z,4.67
2023-02-21T00:14:00.155Z,5.86
2023-02-21T00:14:17.277Z,5.68
2023-02-21T00:14:39.111Z,5.13
2023-02-21T00:15:06.296Z,5.25
2023-02-21T00:15:37.924Z,6.18
2023-02-21T00:16:08.068Z,6.48
2023-02-21T00:16:37.554Z,5.54
2023-02-21T00:16:57.363Z,5.72
2023-02-21T00:17:28.281Z,4.93
2023-02-21T00:18:00.246Z,5.45
2023-02-21T00:18:17.666Z,5.54
2023-02-21T00:18:38.418Z,5.72
2023-02-21T00:19:05.141Z,5.81
2023-02-21T00:19:37.697Z,5.72
2023-02-21T00:20:09.281Z,5.58
2023-02-21T00:20:37.029Z,5.07
2023-02-21T00:20:57.140Z,4.96
2023-02-21T00:21:28.676Z,5.13
2023-02-21T00:22:00.739Z,5.01
2023-02-21T00:22:32.118Z,5.37
2023-02-21T00:23:05.622Z,5.41
2023-02-21T00:23:37.790Z,5.13
2023-02-21T00:24:08.572Z,5.62
2023-02-21T00:24:36.581Z,5.92
2023-02-21T00:24:57.396Z,5.72
2023-02-21T00:25:28.848Z,5.50
2023-02-21T00:26:00.181Z,5.07
2023-02-21T00:26:18.269Z,4.83
2023-02-21T00:26:38.264Z,4.67
2023-02-21T00:27:05.162Z,4.82
2023-02-21T00:27:38.077Z,5.07
2023-02-21T00:28:08.361Z,5.13
2023-02-21T00:28:36.715Z,4.96
2023-02-21T00:28:57.587Z,4.63
2023-02-21T00:29:28.582Z,5.07
2023-02-21T00:30:01.461Z,4.90
2023-02-21T00:30:32.861Z,4.61
2023-02-21T00:31:04.256Z,4.96
2023-02-21T00:31:37.961Z,4.47
2023-02-21T00:32:08.889Z,4.30
2023-02-21T00:32:37.319Z,4.47
2023-02-21T00:32:58.470Z,4.50
2023-02-21T00:33:29.382Z,4.41
2023-02-21T00:34:00.235Z,5.37
2023-02-21T00:34:33.115Z,4.90
2023-02-21T00:35:05.084Z,5.07
2023-02-21T00:35:37.434Z,4.90
2023-02-21T00:36:09.386Z,4.25
2023-02-21T00:36:37.354Z,4.61
2023-02-21T00:36:57.719Z,5.22
2023-02-21T00:37:29.389Z,5.22
2023-02-21T00:38:00.746Z,4.61
2023-02-21T00:38:33.243Z,4.77
2023-02-21T00:39:04.162Z,4.07
2023-02-21T00:39:37.659Z,4.52
2023-02-21T00:40:08.984Z,4.36
2023-02-21T00:40:38.006Z,4.41
2023-02-21T00:40:57.710Z,4.64
2023-02-21T00:41:28.710Z,4.91
2023-02-21T00:42:01.315Z,4.26
2023-02-21T00:42:33.358Z,4.64
2023-02-21T00:43:04.298Z,4.55
2023-02-21T00:43:37.315Z,5.01
2023-02-21T00:44:08.317Z,5.06
2023-02-21T00:44:37.170Z,4.82
2023-02-21T00:44:56.834Z,5.03
2023-02-21T00:45:29.605Z,5.27
2023-02-21T00:46:00.548Z,5.39
2023-02-21T00:46:32.618Z,4.69
2023-02-21T00:47:03.996Z,4.84
2023-02-21T00:47:37.779Z,4.36
2023-02-21T00:48:08.126Z,4.88
2023-02-21T00:48:37.620Z,4.78
2023-02-21T00:48:57.343Z,4.36
2023-02-21T00:49:28.886Z,5.14
2023-02-21T00:50:01.188Z,5.10
2023-02-21T00:50:34.794Z,5.64
2023-02-21T00:51:06.054Z,5.14
2023-02-21T00:51:37.786Z,5.14
2023-02-21T00:52:09.826Z,5.27
2023-02-21T00:52:37.356Z,5.42
2023-02-21T00:52:56.866Z,4.94
2023-02-21T00:53:28.095Z,5.39
2023-02-21T00:54:00.166Z,5.10
2023-02-21T00:54:16.946Z,5.04
2023-02-21T00:54:37.968Z,4.53
2023-02-21T00:55:05.094Z,5.10
2023-02-21T00:55:37.268Z,5.24
2023-02-21T00:56:07.867Z,4.69
2023-02-21T00:56:37.097Z,4.14
2023-02-21T00:56:57.016Z,4.58
2023-02-21T00:57:28.620Z,5.04
2023-02-21T00:58:00.710Z,5.14
2023-02-21T00:58:31.917Z,5.64
2023-02-21T00:59:04.290Z,6.05
2023-02-21T00:59:39.451Z,5.74
2023-02-21T01:00:09.333Z,5.63
2023-02-21T01:00:37.460Z,6.01
2023-02-21T01:00:59.123Z,5.03
2023-02-21T01:01:28.809Z,4.68
2023-02-21T01:02:00.304Z,5.06
2023-02-21T01:02:18.436Z,5.51
2023-02-21T01:02:38.433Z,5.87
2023-02-21T01:03:04.049Z,5.79
2023-02-21T01:03:38.058Z,6.46
2023-02-21T01:04:09.471Z,6.16
2023-02-21T01:04:38.235Z,5.97
2023-02-21T01:04:57.787Z,6.09
2023-02-21T01:05:31.259Z,6.29
2023-02-21T01:06:00.716Z,5.63
2023-02-21T01:06:32.287Z,5.51
2023-02-21T01:07:04.461Z,5.42
2023-02-21T01:07:37.845Z,6.16
2023-02-21T01:08:09.608Z,5.68
2023-02-21T01:08:38.195Z,5.90
2023-02-21T01:08:57.324Z,5.27
2023-02-21T01:09:28.900Z,5.70
2023-02-21T01:10:01.693Z,5.70
2023-02-21T01:10:31.941Z,5.79
2023-02-21T01:11:03.949Z,5.79
2023-02-21T01:11:37.546Z,5.79
2023-02-21T01:12:07.899Z,5.83
2023-02-21T01:12:36.377Z,5.74
2023-02-21T01:12:57.041Z,6.70
2023-02-21T01:13:28.057Z,6.29
2023-02-21T01:14:00.006Z,6.41
2023-02-21T01:14:17.301Z,6.70
2023-02-21T01:14:38.002Z,6.70
2023-02-21T01:15:05.322Z,5.47
2023-02-21T01:15:37.595Z,6.34
2023-02-21T01:16:09.374Z,7.20
2023-02-21T01:16:37.623Z,6.57
2023-02-21T01:16:59.407Z,6.65
2023-02-21T01:17:28.555Z,5.93
2023-02-21T01:18:00.408Z,6.47
2023-02-21T01:18:17.160Z,6.23
2023-02-21T01:18:39.151Z,5.76
2023-02-21T01:19:05.402Z,5.70
2023-02-21T01:19:37.706Z,5.79
2023-02-21T01:20:09.182Z,5.42
2023-02-21T01:20:37.351Z,5.22
2023-02-21T01:20:57.667Z,5.47
2023-02-21T01:21:28.122Z,5.36
2023-02-21T01:22:01.138Z,4.58
2023-02-21T01:22:32.763Z,4.56
2023-02-21T01:23:05.327Z,5.13
2023-02-21T01:23:37.856Z,5.53
2023-02-21T01:24:08.520Z,5.64
2023-02-21T01:24:36.575Z,5.08
2023-02-21T01:24:57.633Z,5.44
2023-02-21T01:25:28.557Z,4.72
2023-02-21T01:26:00.364Z,4.80
2023-02-21T01:26:31.975Z,4.47
2023-02-21T01:27:05.206Z,5.20
2023-02-21T01:27:38.622Z,5.20
2023-02-21T01:28:08.849Z,5.17
2023-02-21T01:28:37.152Z,5.97
2023-02-21T01:28:57.635Z,6.14
2023-02-21T01:29:28.190Z,6.10
2023-02-21T01:30:02.173Z,5.76
2023-02-21T01:30:32.874Z,5.61
2023-02-21T01:31:04.622Z,5.64
2023-02-21T01:31:37.651Z,5.39
2023-02-21T01:32:09.534Z,5.64
2023-02-21T01:32:37.813Z,5.20
2023-02-21T01:32:57.619Z,5.17
2023-02-21T01:33:29.620Z,5.05
2023-02-21T01:34:00.464Z,6.04
2023-02-21T01:34:34.647Z,5.64
2023-02-21T01:35:04.965Z,5.97
2023-02-21T01:35:37.450Z,5.56
2023-02-21T01:36:09.338Z,5.39
2023-02-21T01:36:37.875Z,5.39
2023-02-21T01:36:57.824Z,5.44
2023-02-21T01:37:28.421Z,5.47
2023-02-21T01:38:01.338Z,5.64
2023-02-21T01:38:31.967Z,5.93
2023-02-21T01:39:03.930Z,5.76
2023-02-21T01:39:36.944Z,5.11
2023-02-21T01:40:08.347Z,5.26
2023-02-21T01:40:36.068Z,5.44
2023-02-21T01:40:57.270Z,5.40
2023-02-21T01:41:28.065Z,5.82
2023-02-21T01:42:00.041Z,5.40
2023-02-21T01:42:16.999Z,5.58
2023-02-21T01:42:38.055Z,5.61
2023-02-21T01:43:03.851Z,5.58
2023-02-21T01:43:37.313Z,5.82
2023-02-21T01:44:07.928Z,5.19
2023-02-21T01:44:36.109Z,5.22
2023-02-21T01:44:56.866Z,5.44
2023-02-21T01:45:28.909Z,5.75
2023-02-21T01:46:00.166Z,6.10
2023-02-21T01:46:17.101Z,5.82
2023-02-21T01:46:37.717Z,6.01
2023-02-21T01:47:03.921Z,5.40
2023-02-21T01:47:37.337Z,5.78
2023-02-21T01:48:07.865Z,5.53
2023-02-21T01:48:37.032Z,5.85
2023-02-21T01:48:56.989Z,5.19
2023-02-21T01:49:28.026Z,5.47
2023-02-21T01:50:01.114Z,5.11
2023-02-21T01:50:32.188Z,5.82
2023-02-21T01:51:04.691Z,5.82
2023-02-21T01:51:38.078Z,5.50
2023-02-21T01:52:08.293Z,5.58
2023-02-21T01:52:36.900Z,5.53
2023-02-21T01:52:58.385Z,5.82
2023-02-21T01:53:28.065Z,5.53
2023-02-21T01:54:00.572Z,6.28
2023-02-21T01:54:20.351Z,5.70
2023-02-21T01:54:37.756Z,5.75
2023-02-21T01:55:05.192Z,5.25
2023-02-21T01:55:38.981Z,5.70
2023-02-21T01:56:09.991Z,5.11
2023-02-21T01:56:37.252Z,4.95
2023-02-21T01:56:58.031Z,6.14
2023-02-21T01:57:29.222Z,6.18
2023-02-21T01:58:00.610Z,5.82
2023-02-21T01:58:32.854Z,6.24
2023-02-21T01:59:04.141Z,5.85
2023-02-21T01:59:37.588Z,6.06
2023-02-21T02:00:10.667Z,5.94
2023-02-21T02:00:37.415Z,5.78
2023-02-21T02:00:57.807Z,6.36
2023-02-21T02:01:29.506Z,6.06
2023-02-21T02:02:00.853Z,6.10
2023-02-21T02:02:32.123Z,5.44
2023-02-21T02:03:04.275Z,6.18
2023-02-21T02:03:37.813Z,5.25
2023-02-21T02:04:09.699Z,5.56
2023-02-21T02:04:37.885Z,5.50
2023-02-21T02:04:57.556Z,5.36
2023-02-21T02:05:29.698Z,5.39
2023-02-21T02:06:01.384Z,5.26
2023-02-21T02:06:33.193Z,5.30
2023-02-21T02:07:04.353Z,5.40
2023-02-21T02:07:37.465Z,5.82
2023-02-21T02:08:08.336Z,5.82
2023-02-21T02:08:37.101Z,5.75
2023-02-21T02:08:57.531Z,5.90
2023-02-21T02:09:28.140Z,6.18
2023-02-21T02:10:02.402Z,5.78
2023-02-21T02:10:34.442Z,6.43
2023-02-21T02:11:04.358Z,5.97
2023-02-21T02:11:37.807Z,5.64
2023-02-21T02:12:08.425Z,5.67
2023-02-21T02:12:37.000Z,5.23
2023-02-21T02:12:57.543Z,4.99
2023-02-21T02:13:28.620Z,5.33
2023-02-21T02:14:00.671Z,5.39
2023-02-21T02:14:17.481Z,5.20
2023-02-21T02:14:38.522Z,5.17
2023-02-21T02:15:06.786Z,5.26
2023-02-21T02:15:37.718Z,6.04
2023-02-21T02:16:08.095Z,5.71
2023-02-21T02:16:37.111Z,5.11
2023-02-21T02:16:56.773Z,5.39
2023-02-21T02:17:27.964Z,5.17
2023-02-21T02:18:00.737Z,4.91
2023-02-21T02:18:32.703Z,4.85
2023-02-21T02:19:04.434Z,5.11
2023-02-21T02:19:37.678Z,5.01
2023-02-21T02:20:09.330Z,5.05
2023-02-21T02:20:36.128Z,5.44
2023-02-21T02:20:58.604Z,5.44
2023-02-21T02:21:28.804Z,5.44
2023-02-21T02:22:00.869Z,4.99
2023-02-21T02:22:32.414Z,5.64
2023-02-21T02:23:04.569Z,5.47
2023-02-21T02:23:38.152Z,5.22
2023-02-21T02:24:08.902Z,5.53
2023-02-21T02:24:37.077Z,5.37
2023-02-21T02:24:58.263Z,5.53
2023-02-21T02:25:29.431Z,5.67
2023-02-21T02:26:00.917Z,5.53
2023-02-21T02:26:32.318Z,5.20
2023-02-21T02:27:04.255Z,5.47
2023-02-21T02:27:38.024Z,4.80
2023-02-21T02:28:10.518Z,4.62
2023-02-21T02:28:37.526Z,4.80
2023-02-21T02:28:57.572Z,5.11
2023-02-21T02:29:29.710Z,5.61
2023-02-21T02:30:02.876Z,5.97
2023-02-21T02:30:32.292Z,5.58
2023-02-21T02:31:04.302Z,5.85
2023-02-21T02:31:37.736Z,6.24
2023-02-21T02:32:09.694Z,5.53
2023-02-21T02:32:37.458Z,5.67
2023-02-21T02:32:58.025Z,5.32
2023-02-21T02:33:28.925Z,5.36
2023-02-21T02:34:02.079Z,5.71
2023-02-21T02:34:34.512Z,6.04
2023-02-21T02:35:05.079Z,5.47
2023-02-21T02:35:37.491Z,5.50
2023-02-21T02:36:07.940Z,6.04
2023-02-21T02:36:37.090Z,6.23
2023-02-21T02:36:57.494Z,6.38
2023-02-21T02:37:29.071Z,5.83
2023-02-21T02:38:01.326Z,5.25
2023-02-21T02:38:33.894Z,5.47
2023-02-21T02:39:04.173Z,5.71
2023-02-21T02:39:37.797Z,6.00
2023-02-21T02:40:09.751Z,5.80
2023-02-21T02:40:37.199Z,5.87
2023-02-21T02:40:57.720Z,5.87
2023-02-21T02:41:28.121Z,6.19
2023-02-21T02:42:00.809Z,5.93
2023-02-21T02:42:33.276Z,6.00
2023-02-21T02:43:04.458Z,6.29
2023-02-21T02:43:37.442Z,6.14
2023-02-21T02:44:09.202Z,6.34
2023-02-21T02:44:37.130Z,5.33
2023-02-21T02:44:57.477Z,5.76
2023-02-21T02:45:29.619Z,5.33
2023-02-21T02:46:00.983Z,5.53
2023-02-21T02:46:32.371Z,6.04
2023-02-21T02:47:05.982Z,6.23
2023-02-21T02:47:37.799Z,6.28
2023-02-21T02:48:08.267Z,6.28
2023-02-21T02:48:37.773Z,6.52
2023-02-21T02:48:57.788Z,6.36
2023-02-21T02:49:28.578Z,5.71
2023-02-21T02:50:01.133Z,6.23
2023-02-21T02:50:17.578Z,5.71
2023-02-21T02:50:39.261Z,5.97
2023-02-21T02:51:07.415Z,5.44
2023-02-21T02:51:37.745Z,5.20
2023-02-21T02:52:09.182Z,5.50
2023-02-21T02:52:36.325Z,5.39
2023-02-21T02:52:57.996Z,5.80
2023-02-21T02:53:29.334Z,6.29
2023-02-21T02:54:00.503Z,5.76
2023-02-21T02:54:17.991Z,5.93
2023-02-21T02:54:38.158Z,5.64
2023-02-21T02:55:05.809Z,5.39
2023-02-21T02:55:38.771Z,5.68
2023-02-21T02:56:08.479Z,5.33
2023-02-21T02:56:37.634Z,5.17
2023-02-21T02:56:58.669Z,5.05
2023-02-21T02:57:28.574Z,5.87
2023-02-21T02:58:01.138Z,5.68
2023-02-21T02:58:32.334Z,5.68
2023-02-21T02:59:03.940Z,5.68
2023-02-21T02:59:37.834Z,6.29
2023-02-21T03:00:10.545Z,5.97
2023-02-21T03:00:37.992Z,5.78
2023-02-21T03:00:57.816Z,5.64
2023-02-21T03:01:29.948Z,5.70
2023-02-21T03:02:00.521Z,5.82
2023-02-21T03:02:32.176Z,6.24
2023-02-21T03:03:03.970Z,6.24
2023-02-21T03:03:37.553Z,6.52
2023-02-21T03:04:08.468Z,6.61
2023-02-21T03:04:37.485Z,6.38
2023-02-21T03:04:56.837Z,6.04
2023-02-21T03:05:29.015Z,5.64
2023-02-21T03:06:01.616Z,5.76
2023-02-21T03:06:31.996Z,5.64
2023-02-21T03:07:04.079Z,6.14
2023-02-21T03:07:37.506Z,5.84
2023-02-21T03:08:08.689Z,5.97
2023-02-21T03:08:36.704Z,6.10
2023-02-21T03:08:56.904Z,5.97
2023-02-21T03:09:28.224Z,6.14
2023-02-21T03:10:00.732Z,5.50
2023-02-21T03:10:17.225Z,5.44
2023-02-21T03:10:38.178Z,6.00
2023-02-21T03:11:04.327Z,5.78
2023-02-21T03:11:37.577Z,6.06
2023-02-21T03:12:08.333Z,6.43
2023-02-21T03:12:37.227Z,5.90
2023-02-21T03:12:56.936Z,5.67
2023-02-21T03:13:28.038Z,5.53
2023-02-21T03:14:00.698Z,5.97
2023-02-21T03:14:32.330Z,5.76
2023-02-21T03:15:05.940Z,5.30
2023-02-21T03:15:37.717Z,4.99
2023-02-21T03:16:08.730Z,5.33
2023-02-21T03:16:36.802Z,5.36
2023-02-21T03:16:56.885Z,5.93
2023-02-21T03:17:28.343Z,5.97
2023-02-21T03:18:00.382Z,5.91
2023-02-21T03:18:17.127Z,6.01
2023-02-21T03:18:39.918Z,6.01
2023-02-21T03:19:05.044Z,4.91
2023-02-21T03:19:37.313Z,5.36
2023-02-21T03:20:08.344Z,6.01
2023-02-21T03:20:36.806Z,5.36
2023-02-21T03:20:57.208Z,5.54
2023-02-21T03:21:28.063Z,5.83
2023-02-21T03:22:00.097Z,5.97
2023-02-21T03:22:16.988Z,5.55
2023-02-21T03:22:37.663Z,5.55
2023-02-21T03:23:03.866Z,5.39
2023-02-21T03:23:37.271Z,5.64
2023-02-21T03:24:07.822Z,5.39
2023-02-21T03:24:36.973Z,5.32
2023-02-21T03:24:56.823Z,5.68
2023-02-21T03:25:28.807Z,4.69
2023-02-21T03:26:00.100Z,5.14
2023-02-21T03:26:17.023Z,4.96
2023-02-21T03:26:37.744Z,5.27
2023-02-21T03:27:03.805Z,5.21
2023-02-21T03:27:37.298Z,5.27
2023-02-21T03:28:07.965Z,6.16
2023-02-21T03:28:36.120Z,5.66
2023-02-21T03:28:57.090Z,5.63
2023-02-21T03:29:27.968Z,6.41
2023-02-21T03:30:01.609Z,5.63
2023-02-21T03:30:17.132Z,6.05
2023-02-21T03:30:38.338Z,5.91
2023-02-21T03:31:03.929Z,5.84
2023-02-21T03:31:37.285Z,6.16
2023-02-21T03:32:07.853Z,6.65
2023-02-21T03:32:36.833Z,6.51
2023-02-21T03:32:56.868Z,7.10
2023-02-21T03:33:28.060Z,6.01
2023-02-21T03:34:00.015Z,6.46
2023-02-21T03:34:16.953Z,7.27
2023-02-21T03:34:37.784Z,6.65
2023-02-21T03:35:04.863Z,6.34
2023-02-21T03:35:37.398Z,6.01
2023-02-21T03:36:07.864Z,5.83
2023-02-21T03:36:36.039Z,5.91
2023-02-21T03:36:57.154Z,6.57
2023-02-21T03:37:27.992Z,6.76
2023-02-21T03:38:00.114Z,6.82
2023-02-21T03:38:17.038Z,6.34
2023-02-21T03:38:37.655Z,5.91
2023-02-21T03:39:03.823Z,5.63
2023-02-21T03:39:37.341Z,6.34
2023-02-21T03:40:08.227Z,6.46
2023-02-21T03:40:36.638Z,6.38
2023-02-21T03:40:57.480Z,6.59
2023-02-21T03:41:28.034Z,6.70
2023-02-21T03:41:59.964Z,6.47
2023-02-21T03:42:16.953Z,6.59
2023-02-21T03:42:38.338Z,5.76
2023-02-21T03:43:03.877Z,5.87
2023-02-21T03:43:37.687Z,6.47
2023-02-21T03:44:07.920Z,6.00
2023-02-21T03:44:36.269Z,6.70
2023-02-21T03:44:56.896Z,6.55
2023-02-21T03:45:28.926Z,7.10
2023-02-21T03:46:00.124Z,6.59
2023-02-21T03:46:17.102Z,6.78
2023-02-21T03:46:39.898Z,6.78
2023-02-21T03:47:03.889Z,6.89
2023-02-21T03:47:37.253Z,6.04
2023-02-21T03:48:07.874Z,6.23
2023-02-21T03:48:36.364Z,6.65
2023-02-21T03:48:56.909Z,6.57
2023-02-21T03:49:27.991Z,6.70
2023-02-21T03:50:00.771Z,6.41
2023-02-21T03:50:31.948Z,6.16
2023-02-21T03:51:03.891Z,5.83
2023-02-21T03:51:37.269Z,6.38
2023-02-21T03:52:07.860Z,6.23
2023-02-21T03:52:36.128Z,6.55
2023-02-21T03:52:57.088Z,7.04
2023-02-21T03:53:28.087Z,6.29
2023-02-21T03:54:00.453Z,5.93
2023-02-21T03:54:17.160Z,6.47
2023-02-21T03:54:37.894Z,6.38
2023-02-21T03:55:04.897Z,6.65
2023-02-21T03:55:37.381Z,6.83
2023-02-21T03:56:07.926Z,6.59
2023-02-21T03:56:41.967Z,6.95
2023-02-21T03:56:56.895Z,5.93
2023-02-21T03:57:28.212Z,5.56
2023-02-21T03:58:00.029Z,5.76
2023-02-21T03:58:17.030Z,5.87
2023-02-21T03:58:38.463Z,6.43
2023-02-21T03:59:03.938Z,6.78
2023-02-21T03:59:37.409Z,5.70
2023-02-21T04:00:09.024Z,5.50
2023-02-21T04:00:36.584Z,5.47
2023-02-21T04:00:57.365Z,6.28
2023-02-21T04:01:28.011Z,5.67
2023-02-21T04:02:00.060Z,5.82
2023-02-21T04:02:16.985Z,6.06
2023-02-21T04:02:37.808Z,6.52
2023-02-21T04:03:03.908Z,6.52
2023-02-21T04:03:37.296Z,6.32
2023-02-21T04:04:07.991Z,6.01
2023-02-21T04:04:36.045Z,6.52
2023-02-21T04:04:57.016Z,6.06
2023-02-21T04:05:28.423Z,6.56
2023-02-21T04:06:00.193Z,5.70
2023-02-21T04:06:17.021Z,5.78
2023-02-21T04:06:38.074Z,6.10
2023-02-21T04:07:03.855Z,6.06
2023-02-21T04:07:37.285Z,5.85
2023-02-21T04:08:08.271Z,6.18
2023-02-21T04:08:36.070Z,6.10
2023-02-21T04:08:56.933Z,6.68
2023-02-21T04:09:27.985Z,6.10
2023-02-21T04:10:00.044Z,6.36
2023-02-21T04:10:17.406Z,5.53
2023-02-21T04:10:46.870Z,5.67
2023-02-21T04:11:03.884Z,5.90
2023-02-21T04:11:37.274Z,6.14
2023-02-21T04:12:07.940Z,5.94
2023-02-21T04:12:36.513Z,5.67
2023-02-21T04:12:56.824Z,5.32
2023-02-21T04:13:28.020Z,5.90
2023-02-21T04:14:00.184Z,5.67
2023-02-21T04:14:16.937Z,5.75
2023-02-21T04:14:37.941Z,5.78
2023-02-21T04:15:05.465Z,5.75
2023-02-21T04:15:37.509Z,5.47
2023-02-21T04:16:08.103Z,5.40
2023-02-21T04:16:36.079Z,5.13
2023-02-21T04:16:56.961Z,5.64
2023-02-21T04:17:28.012Z,5.02
2023-02-21T04:18:00.073Z,5.70
2023-02-21T04:18:17.004Z,5.12
2023-02-21T04:18:37.949Z,5.29
2023-02-21T04:19:03.932Z,5.38
2023-02-21T04:19:37.481Z,5.12
2023-02-21T04:20:08.397Z,5.31
2023-02-21T04:20:36.714Z,5.46
2023-02-21T04:20:57.365Z,6.14
2023-02-21T04:21:28.071Z,6.48
2023-02-21T04:22:00.110Z,6.14
2023-02-21T04:22:16.958Z,6.05
2023-02-21T04:22:37.850Z,5.95
2023-02-21T04:23:04.333Z,5.84
2023-02-21T04:23:37.216Z,6.10
2023-02-21T04:24:08.017Z,5.81
2023-02-21T04:24:36.177Z,6.02
2023-02-21T04:24:57.153Z,5.78
2023-02-21T04:25:28.547Z,5.10
2023-02-21T04:26:00.095Z,5.20
2023-02-21T04:26:17.023Z,5.48
2023-02-21T04:26:37.630Z,5.46
2023-02-21T04:27:03.864Z,5.83
2023-02-21T04:27:37.648Z,6.36
2023-02-21T04:28:08.026Z,6.02
2023-02-21T04:28:36.065Z,5.89
2023-02-21T04:28:57.637Z,5.89
2023-02-21T04:29:28.040Z,5.86
2023-02-21T04:30:00.040Z,5.99
2023-02-21T04:30:17.814Z,5.83
2023-02-21T04:30:38.067Z,5.23
2023-02-21T04:31:03.881Z,6.25
2023-02-21T04:31:37.577Z,5.61
2023-02-21T04:32:08.029Z,5.89
2023-02-21T04:32:36.559Z,5.70
2023-02-21T04:32:56.964Z,5.61
2023-02-21T04:33:28.048Z,6.06
2023-02-21T04:34:11.301Z,6.06
2023-02-21T04:34:17.002Z,6.06
2023-02-21T04:34:38.168Z,6.14
2023-02-21T04:35:04.913Z,6.62
2023-02-21T04:35:37.238Z,6.06
2023-02-21T04:36:08.010Z,5.31
2023-02-21T04:36:36.355Z,5.75
2023-02-21T04:36:57.114Z,6.03
2023-02-21T04:37:28.094Z,6.03
2023-02-21T04:38:00.284Z,6.72
2023-02-21T04:38:17.092Z,6.76
2023-02-21T04:38:37.712Z,6.03
2023-02-21T04:39:03.917Z,6.27
2023-02-21T04:39:37.307Z,6.31
2023-02-21T04:40:08.509Z,6.27
2023-02-21T04:40:36.088Z,6.00
2023-02-21T04:40:57.400Z,6.39
2023-02-21T04:41:28.144Z,6.39
2023-02-21T04:42:00.027Z,5.90
2023-02-21T04:42:17.031Z,5.72
2023-02-21T04:42:37.777Z,6.27
2023-02-21T04:43:04.476Z,6.03
2023-02-21T04:43:37.343Z,5.56
2023-02-21T04:44:07.998Z,5.70
2023-02-21T04:44:36.024Z,5.75
2023-02-21T04:45:00.422Z,6.10
2023-02-21T04:45:28.988Z,5.64
2023-02-21T04:46:00.275Z,6.10
2023-02-21T04:46:17.095Z,6.07
2023-02-21T04:46:37.787Z,5.90
2023-02-21T04:47:03.944Z,5.58
2023-02-21T04:47:37.387Z,5.87
2023-02-21T04:48:08.513Z,5.87
2023-02-21T04:48:36.950Z,5.82
2023-02-21T04:48:57.121Z,6.27
2023-02-21T04:49:27.975Z,6.07
2023-02-21T04:50:00.628Z,5.64
2023-02-21T04:50:16.943Z,5.64
2023-02-21T04:50:38.110Z,6.07
2023-02-21T04:51:15.088Z,6.27
2023-02-21T04:51:37.291Z,6.19
2023-02-21T04:52:08.570Z,5.90
2023-02-21T04:52:36.130Z,5.37
2023-02-21T04:52:56.982Z,5.84
2023-02-21T04:53:27.965Z,5.50
2023-02-21T04:54:00.049Z,5.70
2023-02-21T04:54:17.048Z,5.61
2023-02-21T04:54:37.761Z,6.24
2023-02-21T04:55:04.960Z,5.82
2023-02-21T04:55:37.400Z,5.45
2023-02-21T04:56:08.041Z,5.90
2023-02-21T04:56:36.287Z,6.39
2023-02-21T04:56:57.017Z,6.69
2023-02-21T04:57:27.955Z,6.17
2023-02-21T04:58:00.044Z,6.60
2023-02-21T04:58:17.016Z,5.99
2023-02-21T04:58:44.889Z,5.80
2023-02-21T04:59:03.854Z,5.73
2023-02-21T04:59:37.392Z,6.33
2023-02-21T05:00:09.062Z,5.99
2023-02-21T05:00:36.051Z,6.11
2023-02-21T05:00:57.472Z,5.87
2023-02-21T05:01:28.213Z,6.16
2023-02-21T05:02:02.698Z,6.19
2023-02-21T05:02:16.970Z,6.66
2023-02-21T05:02:37.696Z,6.24
2023-02-21T05:03:04.172Z,6.63
2023-02-21T05:03:37.357Z,5.94
2023-02-21T05:04:08.041Z,6.66
2023-02-21T05:04:35.924Z,6.27
2023-02-21T05:04:56.912Z,6.31
2023-02-21T05:05:28.558Z,6.59
2023-02-21T05:06:00.153Z,6.31
2023-02-21T05:06:16.978Z,6.19
2023-02-21T05:06:37.676Z,6.59
2023-02-21T05:07:03.981Z,6.59
2023-02-21T05:07:37.358Z,6.39
2023-02-21T05:08:08.020Z,6.31
2023-02-21T05:08:35.950Z,6.31
2023-02-21T05:08:56.821Z,6.07
2023-02-21T05:09:27.970Z,6.50
2023-02-21T05:10:00.006Z,6.76
2023-02-21T05:10:17.518Z,6.80
2023-02-21T05:10:45.539Z,6.84
2023-02-21T05:11:03.864Z,7.08
2023-02-21T05:11:37.433Z,6.43
2023-02-21T05:12:08.043Z,6.84
2023-02-21T05:12:36.214Z,7.08
2023-02-21T05:12:57.224Z,6.62
2023-02-21T05:13:28.041Z,6.67
2023-02-21T05:14:00.125Z,6.41
2023-02-21T05:14:17.489Z,6.14
2023-02-21T05:14:37.719Z,6.77
2023-02-21T05:15:05.553Z,5.76
2023-02-21T05:15:37.334Z,6.25
2023-02-21T05:16:08.076Z,5.99
2023-02-21T05:16:36.103Z,6.41
2023-02-21T05:16:56.870Z,6.49
2023-02-21T05:17:28.106Z,6.71
2023-02-21T05:18:00.059Z,6.32
2023-02-21T05:18:17.053Z,6.62
2023-02-21T05:18:37.766Z,6.86
2023-02-21T05:19:03.875Z,6.45
2023-02-21T05:19:37.287Z,7.25
2023-02-21T05:20:08.484Z,5.99
2023-02-21T05:20:36.309Z,5.93
2023-02-21T05:20:57.542Z,6.06
2023-02-21T05:21:28.298Z,6.06
2023-02-21T05:21:59.924Z,5.89
2023-02-21T05:22:16.979Z,6.32
2023-02-21T05:22:37.746Z,6.49
2023-02-21T05:23:13.041Z,6.32
2023-02-21T05:23:37.390Z,6.25
2023-02-21T05:24:08.021Z,7.12
2023-02-21T05:24:35.961Z,6.77
2023-02-21T05:24:56.854Z,6.41
2023-02-21T05:25:28.715Z,6.17
2023-02-21T05:26:00.091Z,6.06
2023-02-21T05:26:17.087Z,6.45
2023-02-21T05:26:37.702Z,6.90
2023-02-21T05:27:03.908Z,6.49
2023-02-21T05:27:37.307Z,5.93
2023-02-21T05:28:08.065Z,5.80
2023-02-21T05:28:36.055Z,5.89
2023-02-21T05:28:56.918Z,6.41
2023-02-21T05:29:28.123Z,6.20
2023-02-21T05:30:00.029Z,7.17
2023-02-21T05:30:17.852Z,6.41
2023-02-21T05:30:37.927Z,6.59
2023-02-21T05:31:04.118Z,5.76
2023-02-21T05:31:37.489Z,5.58
2023-02-21T05:32:08.053Z,5.56
2023-02-21T05:32:36.214Z,6.02
2023-02-21T05:32:57.042Z,6.17
2023-02-21T05:33:28.850Z,6.77
2023-02-21T05:33:59.926Z,6.77
2023-02-21T05:34:17.116Z,6.25
2023-02-21T05:34:37.826Z,6.25
2023-02-21T05:35:04.986Z,6.14
2023-02-21T05:35:37.510Z,6.45
2023-02-21T05:36:08.104Z,6.25
2023-02-21T05:36:35.884Z,6.17
2023-02-21T05:36:56.943Z,5.89
2023-02-21T05:37:31.224Z,5.38
2023-02-21T05:38:00.257Z,5.76
2023-02-21T05:38:17.065Z,5.64
2023-02-21T05:38:37.767Z,6.17
2023-02-21T05:39:04.037Z,6.36
2023-02-21T05:39:37.348Z,6.14
2023-02-21T05:40:08.439Z,5.70
2023-02-21T05:40:36.976Z,6.49
2023-02-21T05:40:57.355Z,6.32
2023-02-21T05:41:28.023Z,6.71
2023-02-21T05:41:59.976Z,6.45
2023-02-21T05:42:16.989Z,6.14
2023-02-21T05:42:37.791Z,5.89
2023-02-21T05:43:03.966Z,6.59
2023-02-21T05:43:36.987Z,6.14
2023-02-21T05:44:07.960Z,6.30
2023-02-21T05:44:36.238Z,5.84
2023-02-21T05:44:56.975Z,5.58
2023-02-21T05:45:29.028Z,5.98
2023-02-21T05:46:00.367Z,5.84
2023-02-21T05:46:17.182Z,6.10
2023-02-21T05:46:37.726Z,6.30
2023-02-21T05:47:03.902Z,6.56
2023-02-21T05:47:37.737Z,6.17
2023-02-21T05:48:08.124Z,6.86
2023-02-21T05:48:35.989Z,6.41
2023-02-21T05:48:57.084Z,6.02
2023-02-21T05:49:28.062Z,6.53
2023-02-21T05:50:00.658Z,7.62
2023-02-21T05:50:17.132Z,7.30
2023-02-21T05:50:38.171Z,7.02
2023-02-21T05:51:03.848Z,6.62
2023-02-21T05:51:37.497Z,6.59
2023-02-21T05:52:08.173Z,6.86
2023-02-21T05:52:37.303Z,6.86
2023-02-21T05:52:56.924Z,6.71
2023-02-21T05:53:28.107Z,6.49
2023-02-21T05:54:00.119Z,6.86
2023-02-21T05:54:16.969Z,6.45
2023-02-21T05:54:37.673Z,6.62
2023-02-21T05:55:05.038Z,6.71
2023-02-21T05:55:37.463Z,6.49
2023-02-21T05:56:10.438Z,6.81
2023-02-21T05:56:37.460Z,7.07
2023-02-21T05:56:57.016Z,7.56
2023-02-21T05:57:28.229Z,7.56
2023-02-21T05:58:00.013Z,6.95
2023-02-21T05:58:17.141Z,6.77
2023-02-21T05:58:38.257Z,6.71
2023-02-21T05:59:03.851Z,7.12
2023-02-21T05:59:37.669Z,6.67
2023-02-21T06:00:08.988Z,6.95
2023-02-21T06:00:37.527Z,6.91
2023-02-21T06:00:57.307Z,7.25
2023-02-21T06:01:27.926Z,7.49
2023-02-21T06:02:00.006Z,6.99
2023-02-21T06:02:17.109Z,6.55
2023-02-21T06:02:38.108Z,6.76
2023-02-21T06:03:05.099Z,7.25
2023-02-21T06:03:37.467Z,7.25
2023-02-21T06:04:08.031Z,7.43
2023-02-21T06:04:36.467Z,6.07
2023-02-21T06:04:56.884Z,6.45
2023-02-21T06:05:28.488Z,6.10
2023-02-21T06:05:59.976Z,6.14
2023-02-21T06:06:17.038Z,5.68
2023-02-21T06:06:37.748Z,5.61
2023-02-21T06:07:03.878Z,5.76
2023-02-21T06:07:37.467Z,6.95
2023-02-21T06:08:10.152Z,6.95
2023-02-21T06:08:36.961Z,6.62
2023-02-21T06:08:56.886Z,6.90
2023-02-21T06:09:28.045Z,6.81